Time;durP1;ratioP1;P1;durP2;ratioP2;P2;SDS_P1;SDS_P2;PMS_P1;PMS_P2;Temp;Humidity;BMP_temperature;BMP_pressure;BME280_temperature;BME280_humidity;BME280_pressure;Samples;Min_cycle;Max_cycle;Signal;HPM_P1;HPM_P2
2021/01/13 00:01:53;;;;;;;2.83;2.15;;;4.00;99.90;;;;;;4171061;28;20061;-87
2021/01/13 00:03:56;;;;;;;3.42;2.20;;;4.00;99.90;;;;;;4182176;28;20110;-87
2021/01/13 00:05:57;;;;;;;4.03;2.70;;;4.00;99.90;;;;;;4169225;28;20053;-88
2021/01/13 00:07:59;;;;;;;3.50;2.53;;;4.00;99.90;;;;;;4172537;28;20139;-87
2021/01/13 00:10:01;;;;;;;1.23;1.13;;;4.00;99.90;;;;;;4184067;28;20432;-87
2021/01/13 00:12:03;;;;;;;2.47;2.35;;;3.90;99.90;;;;;;4170527;28;20148;-87
2021/01/13 00:14:08;;;;;;;5.82;2.50;;;3.90;99.90;;;;;;4167447;28;20076;-87
2021/01/13 00:16:16;;;;;;;3.55;2.33;;;3.90;99.90;;;;;;4184305;28;20588;-88
2021/01/13 00:18:18;;;;;;;3.00;2.28;;;3.80;99.90;;;;;;4191733;28;20087;-87
2021/01/13 00:20:20;;;;;;;1.98;1.35;;;3.80;99.90;;;;;;4171392;28;20072;-87
2021/01/13 00:22:24;;;;;;;4.43;2.25;;;3.80;99.90;;;;;;4181955;28;20620;-88
2021/01/13 00:24:27;;;;;;;;;;;3.70;99.90;;;;;;4193285;28;20044;-87
2021/01/13 00:26:29;;;;;;;2.58;1.50;;;3.80;99.90;;;;;;4207929;28;19920;-88
2021/01/13 00:28:32;;;;;;;3.22;2.35;;;3.80;99.90;;;;;;4168607;28;20051;-88
2021/01/13 00:30:35;;;;;;;1.83;1.33;;;3.70;99.90;;;;;;4181784;28;20049;-88
2021/01/13 00:32:37;;;;;;;4.40;1.98;;;3.70;99.90;;;;;;4181390;28;20132;-87
2021/01/13 00:34:38;;;;;;;2.25;1.38;;;3.70;99.90;;;;;;4185204;28;20071;-88
2021/01/13 00:36:41;;;;;;;1.50;0.43;;;3.80;99.90;;;;;;4181679;28;20103;-87
2021/01/13 00:38:45;;;;;;;1.95;1.20;;;3.70;99.90;;;;;;4203504;28;20045;-88
2021/01/13 00:40:50;;;;;;;3.15;2.13;;;3.80;99.90;;;;;;4182561;28;20132;-88
2021/01/13 00:42:52;;;;;;;2.75;1.48;;;3.80;99.90;;;;;;4164799;28;20049;-87
2021/01/13 00:44:53;;;;;;;1.67;1.42;;;3.80;99.90;;;;;;4177423;28;20080;-87
2021/01/13 00:46:55;;;;;;;1.83;1.73;;;3.90;99.90;;;;;;4187316;28;20048;-87
2021/01/13 00:48:57;;;;;;;6.63;1.58;;;3.80;99.90;;;;;;4181147;28;20087;-88
2021/01/13 00:50:59;;;;;;;1.52;1.40;;;3.80;99.90;;;;;;4180738;28;20064;-88
2021/01/13 00:53:01;;;;;;;3.65;1.80;;;3.80;99.90;;;;;;4195075;28;20083;-87
2021/01/13 00:55:03;;;;;;;2.42;1.77;;;3.80;99.90;;;;;;4180975;28;20049;-87
2021/01/13 00:57:05;;;;;;;3.47;2.20;;;3.80;99.90;;;;;;4180666;28;20593;-88
2021/01/13 00:59:08;;;;;;;6.05;1.77;;;3.90;99.90;;;;;;4197588;28;20041;-87
2021/01/13 01:01:10;;;;;;;6.45;2.72;;;3.80;99.90;;;;;;4181752;28;20049;-88
2021/01/13 01:03:13;;;;;;;2.85;2.63;;;3.80;99.90;;;;;;4194358;28;20060;-87
2021/01/13 01:05:15;;;;;;;3.45;1.40;;;3.90;99.90;;;;;;4197193;28;20048;-87
2021/01/13 01:07:16;;;;;;;5.35;1.80;;;3.90;99.90;;;;;;4179405;28;20065;-87
2021/01/13 01:09:18;;;;;;;1.52;1.33;;;3.90;99.90;;;;;;4177756;28;20053;-88
2021/01/13 01:11:24;;;;;;;5.25;3.20;;;3.90;99.90;;;;;;4190357;28;20045;-87
2021/01/13 01:13:25;;;;;;;4.70;2.15;;;3.90;99.90;;;;;;4164720;28;20128;-87
2021/01/13 01:15:28;;;;;;;1.88;1.77;;;3.80;99.90;;;;;;4175033;28;20060;-88
2021/01/13 01:17:30;;;;;;;5.15;1.70;;;3.90;99.90;;;;;;4180940;28;20059;-87
2021/01/13 01:19:32;;;;;;;1.55;1.45;;;3.80;99.90;;;;;;4177422;28;20097;-87
2021/01/13 01:21:33;;;;;;;1.35;1.00;;;3.90;99.90;;;;;;4192577;28;20084;-87
2021/01/13 01:23:37;;;;;;;1.45;1.10;;;3.90;99.90;;;;;;4179240;28;20075;-87
2021/01/13 01:25:39;;;;;;;0.80;0.80;;;3.90;99.90;;;;;;4177380;28;20048;-87
2021/01/13 01:27:40;;;;;;;3.60;1.90;;;3.90;99.90;;;;;;4193427;28;20055;-88
2021/01/13 01:29:42;;;;;;;0.82;0.82;;;3.90;99.90;;;;;;4193439;28;20048;-88
2021/01/13 01:31:48;;;;;;;2.42;1.95;;;3.80;99.90;;;;;;4168404;28;20056;-87
2021/01/13 01:33:50;;;;;;;1.90;1.23;;;3.80;99.90;;;;;;4180558;28;20580;-88
2021/01/13 01:35:51;;;;;;;0.90;0.90;;;3.90;99.90;;;;;;4186015;28;20075;-88
2021/01/13 01:37:53;;;;;;;1.77;1.30;;;3.80;99.90;;;;;;4179078;28;20395;-87
2021/01/13 01:39:54;;;;;;;2.13;1.17;;;3.80;99.90;;;;;;4180409;28;20072;-88
2021/01/13 01:41:55;;;;;;;1.33;1.23;;;3.80;99.90;;;;;;4180044;28;20077;-87
2021/01/13 01:43:57;;;;;;;2.35;2.08;;;3.80;99.90;;;;;;4180099;28;20072;-87
2021/01/13 01:45:58;;;;;;;4.60;2.28;;;3.80;99.90;;;;;;4178804;28;20077;-88
2021/01/13 01:48:14;;;;;;;1.23;0.95;;;3.80;99.90;;;;;;4179910;28;20061;-87
2021/01/13 01:50:15;;;;;;;2.33;1.38;;;3.80;99.90;;;;;;4188846;28;20048;-87
2021/01/13 01:52:17;;;;;;;2.50;1.95;;;3.80;99.90;;;;;;4196742;28;20064;-88
2021/01/13 01:54:24;;;;;;;1.45;0.82;;;3.80;99.90;;;;;;4179679;28;20107;-87
2021/01/13 01:56:27;;;;;;;0.98;0.82;;;3.80;99.90;;;;;;4195922;28;20515;-88
2021/01/13 01:58:29;;;;;;;3.42;1.08;;;3.80;99.90;;;;;;4163852;28;20137;-87
2021/01/13 02:00:31;;;;;;;0.93;0.93;;;3.80;99.90;;;;;;4184472;28;20077;-88
2021/01/13 02:02:36;;;;;;;4.10;1.60;;;3.80;99.90;;;;;;4188170;28;20546;-88
2021/01/13 02:04:41;;;;;;;2.10;0.85;;;3.80;99.90;;;;;;4195879;28;20048;-88
2021/01/13 02:06:49;;;;;;;3.20;1.33;;;3.80;99.90;;;;;;4197347;28;20080;-86
2021/01/13 02:08:50;;;;;;;1.63;1.52;;;3.70;99.90;;;;;;4194377;28;20041;-89
2021/01/13 02:10:52;;;;;;;1.42;1.33;;;3.80;99.90;;;;;;4195900;28;20051;-87
2021/01/13 02:12:53;;;;;;;0.38;0.17;;;3.70;99.90;;;;;;4178051;28;20102;-87
2021/01/13 02:14:55;;;;;;;2.67;1.38;;;3.80;99.90;;;;;;4179385;28;20433;-88
2021/01/13 02:16:57;;;;;;;0.65;0.50;;;3.80;99.90;;;;;;4166313;28;20695;-87
2021/01/13 02:18:59;;;;;;;1.42;1.02;;;3.80;99.90;;;;;;4180144;28;20137;-88
2021/01/13 02:21:03;;;;;;;5.32;1.63;;;3.90;99.90;;;;;;4179846;28;20053;-88
2021/01/13 02:23:06;;;;;;;5.40;2.60;;;3.90;99.90;;;;;;4182672;28;20132;-89
2021/01/13 02:25:40;;;;;;;2.50;1.55;;;3.90;99.90;;;;;;4199156;28;20080;-88
2021/01/13 02:28:03;;;;;;;2.28;1.58;;;3.90;99.90;;;;;;4196925;28;20053;-87
2021/01/13 02:30:04;;;;;;;2.45;1.48;;;3.80;99.90;;;;;;4198952;28;20083;-89
2021/01/13 02:32:18;;;;;;;2.05;1.92;;;3.80;99.90;;;;;;4183233;28;20067;-89
2021/01/13 02:34:55;;;;;;;2.97;2.75;;;3.90;99.90;;;;;;4184615;28;20063;-88
2021/01/13 02:37:34;;;;;;;2.17;1.90;;;3.80;99.90;;;;;;4149889;28;20105;-87
2021/01/13 02:39:37;;;;;;;3.22;2.13;;;3.90;99.90;;;;;;4085394;29;20048;-88
2021/01/13 02:41:42;;;;;;;2.17;1.50;;;3.90;99.90;;;;;;4085293;29;20134;-88
2021/01/13 02:43:49;;;;;;;;;;;3.80;99.90;;;;;;4070285;29;20052;-87
2021/01/13 02:45:51;;;;;;;1.52;0.98;;;3.90;99.90;;;;;;4085329;29;19926;-87
2021/01/13 02:48:01;;;;;;;6.50;1.90;;;3.90;99.90;;;;;;4075261;29;20151;-87
2021/01/13 02:50:02;;;;;;;1.98;1.45;;;3.90;99.90;;;;;;4085785;29;20063;-88
2021/01/13 02:52:30;;;;;;;4.43;1.23;;;3.90;99.90;;;;;;4069702;29;20055;-87
2021/01/13 02:54:33;;;;;;;1.40;1.13;;;3.90;99.90;;;;;;4085439;29;20051;-87
2021/01/13 02:56:42;;;;;;;3.83;2.33;;;3.90;99.90;;;;;;4088563;28;20476;-87
2021/01/13 02:58:44;;;;;;;1.60;1.02;;;3.90;99.90;;;;;;4096635;29;20101;-87
2021/01/13 03:00:45;;;;;;;1.95;1.85;;;3.90;99.90;;;;;;4053959;29;20083;-90
2021/01/13 03:02:48;;;;;;;2.35;2.15;;;3.90;99.90;;;;;;4085029;29;20505;-87
2021/01/13 03:04:50;;;;;;;0.55;0.55;;;3.90;99.90;;;;;;4073517;29;20052;-88
2021/01/13 03:06:52;;;;;;;1.65;0.60;;;3.90;99.90;;;;;;4085328;29;20057;-88
2021/01/13 03:09:09;;;;;;;1.10;1.00;;;3.90;99.90;;;;;;4069581;29;20052;-87
2021/01/13 03:11:19;;;;;;;1.80;1.70;;;3.80;99.90;;;;;;4100500;29;20061;-88
2021/01/13 03:13:21;;;;;;;2.55;0.88;;;3.80;99.90;;;;;;4126129;28;20074;-87
2021/01/13 03:15:23;;;;;;;1.10;1.00;;;3.90;99.90;;;;;;4134329;28;20078;-88
2021/01/13 03:17:34;;;;;;;3.22;1.83;;;3.80;99.90;;;;;;4173028;28;20050;-87
2021/01/13 03:20:02;;;;;;;2.17;1.23;;;3.90;99.90;;;;;;4202597;28;20052;-88
2021/01/13 03:22:04;;;;;;;1.35;1.05;;;3.80;99.90;;;;;;4184601;28;20135;-88
2021/01/13 03:24:12;;;;;;;1.05;0.98;;;3.80;99.90;;;;;;4182022;28;20124;-87
2021/01/13 03:26:17;;;;;;;2.33;1.38;;;3.80;99.90;;;;;;4189239;28;20049;-87
2021/01/13 03:28:19;;;;;;;2.45;1.30;;;3.80;99.90;;;;;;4166933;28;20089;-88
2021/01/13 03:30:21;;;;;;;2.95;1.50;;;3.80;99.90;;;;;;4180188;28;20053;-87
2021/01/13 03:32:29;;;;;;;1.42;1.15;;;3.80;99.90;;;;;;4181654;28;20087;-87
2021/01/13 03:34:31;;;;;;;0.95;0.95;;;3.90;99.90;;;;;;4184390;28;20527;-87
2021/01/13 03:37:04;;;;;;;2.53;0.90;;;3.90;99.90;;;;;;4169764;28;20057;-87
2021/01/13 03:39:07;;;;;;;0.40;0.40;;;3.90;99.90;;;;;;4206894;28;20127;-87
2021/01/13 03:41:08;;;;;;;4.32;0.70;;;3.90;99.90;;;;;;4189637;28;20139;-88
2021/01/13 03:43:20;;;;;;;2.42;1.20;;;3.90;99.90;;;;;;4197783;28;20123;-88
2021/01/13 03:45:32;;;;;;;0.73;0.73;;;3.90;99.90;;;;;;4180136;28;20057;-88
2021/01/13 03:47:40;;;;;;;0.88;0.82;;;3.80;99.90;;;;;;4192865;28;20045;-87
2021/01/13 03:49:57;;;;;;;2.75;1.58;;;3.90;99.90;;;;;;4203464;28;20119;-87
2021/01/13 03:52:05;;;;;;;2.15;1.33;;;3.90;99.90;;;;;;4198727;28;20431;-88
2021/01/13 03:54:06;;;;;;;2.40;2.20;;;4.00;99.90;;;;;;4198225;28;20070;-88
2021/01/13 03:56:07;;;;;;;1.13;0.73;;;4.10;99.90;;;;;;4168854;28;20069;-88
2021/01/13 03:58:08;;;;;;;0.88;0.60;;;4.00;99.90;;;;;;4197638;28;20048;-88
2021/01/13 04:00:10;;;;;;;1.33;1.13;;;4.10;99.90;;;;;;4213040;28;20591;-88
2021/01/13 04:02:17;;;;;;;0.65;0.50;;;4.10;99.90;;;;;;4181151;28;20052;-86
2021/01/13 04:04:24;;;;;;;1.35;0.80;;;4.10;99.90;;;;;;4165876;28;20054;-88
2021/01/13 04:06:25;;;;;;;0.95;0.95;;;4.10;99.90;;;;;;4179979;28;20127;-89
2021/01/13 04:08:34;;;;;;;1.25;0.88;;;4.10;99.90;;;;;;4166783;28;20140;-87
2021/01/13 04:10:36;;;;;;;3.20;1.83;;;4.20;99.90;;;;;;4185022;28;20505;-88
2021/01/13 04:12:55;;;;;;;0.90;0.90;;;4.10;99.90;;;;;;4177482;28;20120;-88
2021/01/13 04:14:57;;;;;;;2.28;1.83;;;4.10;99.90;;;;;;4210495;28;20048;-87
2021/01/13 04:16:58;;;;;;;1.08;0.65;;;4.10;99.90;;;;;;4183157;28;20136;-87
2021/01/13 04:19:00;;;;;;;6.50;2.15;;;4.20;99.90;;;;;;4180254;28;20091;-88
2021/01/13 04:21:02;;;;;;;2.60;1.42;;;4.20;99.90;;;;;;4180365;28;20073;-88
2021/01/13 04:23:04;;;;;;;0.50;0.50;;;4.10;99.90;;;;;;4172854;28;20580;-88
2021/01/13 04:25:06;;;;;;;3.05;1.33;;;4.10;99.90;;;;;;4181173;28;20049;-88
2021/01/13 04:27:10;;;;;;;1.27;1.02;;;4.20;99.90;;;;;;4179271;28;20132;-88
2021/01/13 04:29:11;;;;;;;2.63;1.17;;;4.10;99.90;;;;;;4173234;28;20080;-88
2021/01/13 04:31:13;;;;;;;1.85;1.08;;;4.10;99.90;;;;;;4182182;28;20055;-88
2021/01/13 04:33:15;;;;;;;0.40;0.40;;;4.10;99.90;;;;;;4173762;28;20057;-87
2021/01/13 04:35:17;;;;;;;2.75;0.90;;;4.10;99.90;;;;;;4172389;28;20049;-88
2021/01/13 04:37:18;;;;;;;3.83;1.20;;;4.10;99.90;;;;;;4149110;28;20507;-88
2021/01/13 04:39:20;;;;;;;1.17;1.02;;;4.10;99.90;;;;;;4164011;28;20050;-89
2021/01/13 04:41:21;;;;;;;2.60;1.17;;;4.10;99.90;;;;;;4158264;28;20093;-88
2021/01/13 04:43:43;;;;;;;1.25;1.15;;;4.20;99.90;;;;;;4180805;28;20139;-88
2021/01/13 04:45:46;;;;;;;0.70;0.45;;;4.30;99.90;;;;;;4169322;28;20069;-87
2021/01/13 04:47:49;;;;;;;1.75;1.27;;;4.40;99.90;;;;;;4176030;28;20112;-88
2021/01/13 04:49:51;;;;;;;2.63;1.05;;;4.30;99.90;;;;;;4174701;28;20056;-88
2021/01/13 04:51:52;;;;;;;1.02;0.30;;;4.30;99.90;;;;;;4164588;28;20420;-87
2021/01/13 04:53:54;;;;;;;1.15;0.88;;;4.30;99.90;;;;;;4161677;28;20045;-87
2021/01/13 04:55:56;;;;;;;2.78;1.75;;;4.30;99.90;;;;;;4150372;28;20069;-87
2021/01/13 04:58:34;;;;;;;2.85;2.20;;;4.30;99.90;;;;;;4164611;28;20053;-88
2021/01/13 05:00:50;;;;;;;0.55;0.55;;;4.30;99.90;;;;;;4197387;28;20045;-87
2021/01/13 05:03:19;;;;;;;1.40;1.23;;;4.20;99.90;;;;;;4197216;28;20501;-87
2021/01/13 05:05:23;;;;;;;1.02;0.77;;;4.20;99.90;;;;;;4196977;28;20044;-87
2021/01/13 05:07:40;;;;;;;2.42;1.75;;;4.30;99.90;;;;;;4183412;28;20072;-88
2021/01/13 05:10:01;;;;;;;1.23;1.13;;;4.30;99.90;;;;;;4181302;28;20044;-86
2021/01/13 05:12:03;;;;;;;1.23;0.68;;;4.20;99.90;;;;;;4194391;28;20113;-86
2021/01/13 05:14:05;;;;;;;2.13;1.92;;;4.20;99.90;;;;;;4181067;28;20103;-87
2021/01/13 05:16:11;;;;;;;0.70;0.70;;;4.20;99.90;;;;;;4148294;28;20506;-87
2021/01/13 05:18:14;;;;;;;2.10;1.35;;;4.20;99.90;;;;;;4164613;28;20091;-86
2021/01/13 05:20:26;;;;;;;1.48;0.77;;;4.30;99.90;;;;;;4165935;28;20052;-86
2021/01/13 05:22:28;;;;;;;1.13;0.55;;;4.20;99.90;;;;;;4151484;28;20045;-87
2021/01/13 05:24:31;;;;;;;1.20;1.08;;;4.20;99.90;;;;;;4197481;28;20045;-86
2021/01/13 05:26:32;;;;;;;1.85;0.57;;;4.20;99.90;;;;;;4175703;28;20068;-87
2021/01/13 05:28:37;;;;;;;1.15;0.80;;;4.20;99.90;;;;;;4176173;28;20041;-87
2021/01/13 05:30:48;;;;;;;1.63;1.42;;;4.20;99.90;;;;;;4164738;28;20050;-87
2021/01/13 05:32:52;;;;;;;0.22;0.22;;;4.20;99.90;;;;;;4198591;28;20497;-87
2021/01/13 05:34:57;;;;;;;1.13;0.73;;;4.20;99.90;;;;;;4180385;28;20053;-87
2021/01/13 05:37:19;;;;;;;0.50;0.50;;;4.20;99.90;;;;;;4166929;28;20579;-86
2021/01/13 05:39:20;;;;;;;1.35;1.15;;;4.20;99.90;;;;;;4164692;28;20060;-87
2021/01/13 05:41:33;;;;;;;2.22;1.00;;;4.20;99.90;;;;;;4174776;28;20053;-87
2021/01/13 05:44:02;;;;;;;3.35;2.00;;;4.30;99.90;;;;;;4223118;27;1186235;-87
2021/01/13 05:46:05;;;;;;;0.38;0.30;;;4.20;99.90;;;;;;4211871;28;20310;-87
2021/01/13 05:48:21;;;;;;;0.80;0.52;;;4.20;99.90;;;;;;4195909;28;20052;-87
2021/01/13 05:50:25;;;;;;;0.80;0.65;;;4.10;99.90;;;;;;4212038;28;20055;-87
2021/01/13 05:52:34;;;;;;;1.15;0.85;;;4.10;99.90;;;;;;4214997;28;20036;-86
2021/01/13 05:54:36;;;;;;;1.92;1.08;;;4.10;99.90;;;;;;4195973;28;20055;-86
2021/01/13 05:56:40;;;;;;;0.63;0.63;;;4.10;99.90;;;;;;4211883;28;20056;-88
2021/01/13 05:58:44;;;;;;;2.08;1.50;;;4.20;99.90;;;;;;4212970;28;20052;-86
2021/01/13 06:00:45;;;;;;;2.38;1.15;;;4.10;99.90;;;;;;4212324;28;20044;-87
2021/01/13 06:02:47;;;;;;;1.95;1.45;;;4.20;99.90;;;;;;4193826;28;20489;-87
2021/01/13 06:04:50;;;;;;;2.80;0.68;;;4.20;99.90;;;;;;4198769;28;20055;-86
2021/01/13 06:07:19;;;;;;;1.08;0.73;;;4.20;99.90;;;;;;4213076;28;20076;-88
2021/01/13 06:09:21;;;;;;;2.40;0.63;;;4.20;99.90;;;;;;4225665;28;20054;-86
2021/01/13 06:11:25;;;;;;;0.52;0.52;;;4.20;99.90;;;;;;4195382;28;20044;-86
2021/01/13 06:13:34;;;;;;;2.15;1.25;;;4.20;99.90;;;;;;4211352;28;20059;-86
2021/01/13 06:15:36;;;;;;;0.63;0.63;;;4.20;99.90;;;;;;4195509;28;20053;-85
2021/01/13 06:17:37;;;;;;;1.10;0.38;;;4.20;99.90;;;;;;4178048;28;20522;-86
2021/01/13 06:20:05;;;;;;;0.57;0.47;;;4.20;99.90;;;;;;4178141;28;20053;-86
2021/01/13 06:22:55;;;;;;;0.90;0.60;;;4.10;99.90;;;;;;4203602;28;20044;-86
2021/01/13 06:25:20;;;;;;;0.47;0.32;;;4.10;99.90;;;;;;4238392;28;20047;-86
2021/01/13 06:27:59;;;;;;;0.50;0.30;;;4.20;99.90;;;;;;4228868;28;20101;-87
2021/01/13 06:30:50;;;;;;;2.90;0.80;;;4.20;99.90;;;;;;4210870;28;20145;-86
2021/01/13 06:33:19;;;;;;;0.30;0.30;;;4.10;99.90;;;;;;4226785;28;20055;-86
2021/01/13 06:35:35;;;;;;;0.60;0.60;;;4.10;99.90;;;;;;4205936;28;20130;-88
2021/01/13 06:38:35;;;;;;;1.77;1.00;;;4.10;99.90;;;;;;4228030;28;20047;-86
2021/01/13 06:40:37;;;;;;;0.40;0.30;;;4.10;99.90;;;;;;4192432;28;20044;-88
2021/01/13 06:42:38;;;;;;;0.85;0.82;;;4.10;99.90;;;;;;4160218;28;20155;-87
2021/01/13 06:44:44;;;;;;;0.32;0.32;;;4.10;99.90;;;;;;4175256;28;20049;-87
2021/01/13 06:46:47;;;;;;;0.20;0.20;;;4.10;99.90;;;;;;4160712;28;20050;-87
2021/01/13 06:48:49;;;;;;;2.13;0.98;;;4.10;99.90;;;;;;4161068;28;20061;-87
2021/01/13 06:50:56;;;;;;;0.55;0.45;;;4.10;99.90;;;;;;4143785;28;20077;-87
2021/01/13 06:52:58;;;;;;;0.40;0.40;;;4.10;99.90;;;;;;4147445;28;20062;-88
2021/01/13 06:55:00;;;;;;;1.05;0.95;;;4.20;99.90;;;;;;4135676;28;20074;-88
2021/01/13 06:57:02;;;;;;;0.57;0.50;;;4.20;99.90;;;;;;4131863;28;20050;-87
2021/01/13 06:59:03;;;;;;;0.55;0.55;;;4.20;99.90;;;;;;4148847;28;20081;-87
2021/01/13 07:01:05;;;;;;;0.40;0.40;;;4.30;99.90;;;;;;4148894;28;20053;-88
2021/01/13 07:03:20;;;;;;;0.55;0.55;;;4.30;99.90;;;;;;4132245;28;20042;-88
2021/01/13 07:05:33;;;;;;;0.50;0.43;;;4.30;99.90;;;;;;4133215;28;20169;-88
2021/01/13 07:07:40;;;;;;;0.60;0.60;;;4.30;99.90;;;;;;4165507;28;20087;-91
2021/01/13 07:09:43;;;;;;;1.15;0.45;;;4.30;99.90;;;;;;4145730;28;20073;-87
2021/01/13 07:11:44;;;;;;;0.30;0.30;;;4.40;99.90;;;;;;4148107;28;20061;-87
2021/01/13 07:13:51;;;;;;;0.30;0.30;;;4.30;99.90;;;;;;4164862;28;20061;-87
2021/01/13 07:15:54;;;;;;;1.58;0.75;;;4.40;99.90;;;;;;4149097;28;20069;-88
2021/01/13 07:17:55;;;;;;;0.85;0.85;;;4.40;99.90;;;;;;4176297;28;20077;-89
2021/01/13 07:19:57;;;;;;;1.38;1.23;;;4.40;99.90;;;;;;4188539;28;20501;-88
2021/01/13 07:21:58;;;;;;;0.55;0.47;;;4.50;99.90;;;;;;4180714;28;20072;-87
2021/01/13 07:24:00;;;;;;;0.90;0.30;;;4.50;99.90;;;;;;4181248;28;20072;-88
2021/01/13 07:26:01;;;;;;;0.90;0.57;;;4.50;99.90;;;;;;4182052;28;20140;-90
2021/01/13 07:28:08;;;;;;;0.17;0.17;;;4.50;99.90;;;;;;4183694;28;20053;-88
2021/01/13 07:30:10;;;;;;;2.70;1.33;;;4.50;99.90;;;;;;4198789;28;20049;-80
2021/01/13 07:32:11;;;;;;;1.63;1.35;;;4.50;99.90;;;;;;4203663;28;20404;-90
2021/01/13 07:34:36;;;;;;;0.75;0.35;;;4.50;99.90;;;;;;4215996;28;20055;-90
2021/01/13 07:36:39;;;;;;;1.15;0.75;;;4.60;99.90;;;;;;4211364;28;20126;-86
2021/01/13 07:38:42;;;;;;;1.77;1.00;;;4.60;99.90;;;;;;4206206;28;20083;-90
2021/01/13 07:41:04;;;;;;;1.60;0.85;;;4.70;99.90;;;;;;4215995;28;20044;-90
2021/01/13 07:43:12;;;;;;;0.50;0.50;;;4.70;99.90;;;;;;4219874;28;20060;-88
2021/01/13 07:45:14;;;;;;;1.52;1.42;;;4.70;99.90;;;;;;4218324;28;20040;-91
2021/01/13 07:47:27;;;;;;;1.75;0.82;;;4.70;99.90;;;;;;4236425;28;20057;-92
2021/01/13 07:49:43;;;;;;;0.45;0.45;;;4.70;99.90;;;;;;4206157;28;20040;-91
2021/01/13 07:51:50;;;;;;;;;;;4.80;99.90;;;;;;4215917;28;20059;-90
2021/01/13 07:54:07;;;;;;;1.88;1.25;;;4.80;99.90;;;;;;4231083;28;20003;-92
2021/01/13 07:56:11;;;;;;;0.85;0.60;;;4.80;99.90;;;;;;4230290;28;20047;-87
2021/01/13 07:58:20;;;;;;;0.60;0.60;;;4.80;99.90;;;;;;4218551;28;20134;-92
2021/01/13 08:00:36;;;;;;;1.52;1.27;;;4.80;99.90;;;;;;4225312;28;20103;-87
2021/01/13 08:03:15;;;;;;;1.38;0.90;;;4.80;99.90;;;;;;4227321;28;20123;-91
2021/01/13 08:05:16;;;;;;;1.17;1.08;;;4.90;99.90;;;;;;4231025;28;20123;-91
2021/01/13 08:07:18;;;;;;;2.20;0.43;;;4.90;99.90;;;;;;4231769;28;20512;-89
2021/01/13 08:09:23;;;;;;;1.95;1.05;;;4.90;99.90;;;;;;4200661;28;20058;-91
2021/01/13 08:11:40;;;;;;;0.95;0.45;;;4.90;99.90;;;;;;4232450;28;20047;-85
2021/01/13 08:14:16;;;;;;;0.30;0.28;;;4.90;99.90;;;;;;4189513;28;20099;-87
2021/01/13 08:16:48;;;;;;;1.08;0.70;;;5.00;99.90;;;;;;4216861;28;20106;-89
2021/01/13 08:19:28;;;;;;;2.30;0.65;;;5.00;99.90;;;;;;4213442;28;20135;-92
2021/01/13 08:21:56;;;;;;;1.40;0.63;;;4.90;99.90;;;;;;4221010;28;20140;-92
2021/01/13 08:24:06;;;;;;;1.27;0.93;;;5.00;99.90;;;;;;4209183;28;20140;-88
2021/01/13 08:26:08;;;;;;;0.82;0.60;;;5.00;99.90;;;;;;4206302;28;20040;-91
2021/01/13 08:28:12;;;;;;;1.17;1.10;;;5.00;99.90;;;;;;4215467;28;20159;-88
2021/01/13 08:30:14;;;;;;;1.65;1.55;;;5.00;99.90;;;;;;4235849;28;20039;-96
2021/01/13 08:32:16;;;;;;;3.13;1.45;;;5.00;99.90;;;;;;4203142;28;20052;-92
2021/01/13 08:34:18;;;;;;;2.22;1.05;;;5.00;99.90;;;;;;4193429;28;20058;-96
2021/01/13 08:36:19;;;;;;;1.33;1.25;;;5.00;99.90;;;;;;4185851;28;20124;-95
2021/01/13 08:38:21;;;;;;;1.52;1.35;;;5.00;99.90;;;;;;4231395;28;20130;-87
2021/01/13 08:40:27;;;;;;;1.15;0.88;;;5.00;99.90;;;;;;4199447;28;20049;-88
2021/01/13 08:42:32;;;;;;;;;;;5.10;99.90;;;;;;4232695;28;20411;-92
2021/01/13 08:44:38;;;;;;;2.67;0.82;;;5.10;99.90;;;;;;4230638;28;20002;-92
2021/01/13 08:46:41;;;;;;;0.40;0.40;;;5.10;99.90;;;;;;4230904;28;20054;-92
2021/01/13 08:48:42;;;;;;;1.38;0.82;;;5.10;99.90;;;;;;4214619;28;20044;-91
2021/01/13 08:51:08;;;;;;;1.27;0.73;;;5.10;99.90;;;;;;4179408;28;20670;-87
2021/01/13 08:53:22;;;;;;;0.65;0.47;;;5.20;99.90;;;;;;4223118;28;20143;-89
2021/01/13 08:55:24;;;;;;;1.75;1.08;;;5.20;99.90;;;;;;4213706;28;20050;-92
2021/01/13 08:57:26;;;;;;;0.77;0.77;;;5.10;99.90;;;;;;4214008;28;20528;-92
2021/01/13 08:59:34;;;;;;;2.30;0.52;;;5.20;99.90;;;;;;4210753;28;20052;-92
2021/01/13 09:01:37;;;;;;;0.82;0.82;;;5.20;99.90;;;;;;4182257;28;20113;-91
2021/01/13 09:03:40;;;;;;;1.65;1.55;;;5.20;99.90;;;;;;4193250;28;20044;-88
2021/01/13 09:05:41;;;;;;;2.90;2.00;;;5.30;99.90;;;;;;4227398;28;20052;-85
2021/01/13 09:07:46;;;;;;;0.40;0.40;;;5.20;99.90;;;;;;4213178;28;20044;-89
2021/01/13 09:10:07;;;;;;;1.00;0.93;;;5.30;99.90;;;;;;4200313;28;20135;-89
2021/01/13 09:12:45;;;;;;;2.03;1.10;;;5.30;99.90;;;;;;4188140;28;20098;-90
2021/01/13 09:15:07;;;;;;;1.45;1.05;;;5.30;99.90;;;;;;4202354;28;20079;-92
2021/01/13 09:17:13;;;;;;;1.85;0.90;;;5.30;99.90;;;;;;4213148;28;20583;-91
2021/01/13 09:19:16;;;;;;;0.85;0.85;;;5.30;99.90;;;;;;4215015;28;20051;-92
2021/01/13 09:21:17;;;;;;;2.22;1.88;;;5.30;99.90;;;;;;4197053;28;20103;-86
2021/01/13 09:23:22;;;;;;;1.05;1.05;;;5.30;99.90;;;;;;4210773;28;20047;-92
2021/01/13 09:25:33;;;;;;;1.60;0.82;;;5.40;99.90;;;;;;4198296;28;20067;-91
2021/01/13 09:27:35;;;;;;;1.52;1.42;;;5.40;99.90;;;;;;4213620;28;20127;-93
2021/01/13 09:29:55;;;;;;;2.65;0.40;;;5.40;99.90;;;;;;4229566;28;20554;-91
2021/01/13 09:32:12;;;;;;;2.92;1.85;;;5.40;99.90;;;;;;4229771;28;20075;-92
2021/01/13 09:34:30;;;;;;;1.08;0.95;;;5.40;99.90;;;;;;4215354;28;20052;-90
2021/01/13 09:36:51;;;;;;;0.90;0.63;;;5.50;99.90;;;;;;4197163;28;20052;-92
2021/01/13 09:39:26;;;;;;;12.93;2.55;;;5.60;99.90;;;;;;4208391;28;20047;-92
2021/01/13 09:41:28;;;;;;;1.45;1.10;;;5.60;99.90;;;;;;4217527;28;20044;-90
2021/01/13 09:43:37;;;;;;;1.33;0.82;;;5.60;99.90;;;;;;4230100;28;20154;-91
2021/01/13 09:45:39;;;;;;;2.50;0.77;;;5.70;99.90;;;;;;4209227;28;20090;-91
2021/01/13 09:47:40;;;;;;;1.20;1.10;;;5.70;99.90;;;;;;4187503;28;20041;-87
2021/01/13 09:49:42;;;;;;;1.50;1.40;;;5.70;99.90;;;;;;4218177;28;20529;-87
2021/01/13 09:51:44;;;;;;;2.60;1.27;;;5.80;99.90;;;;;;4199982;28;20044;-89
2021/01/13 09:53:49;;;;;;;1.85;1.45;;;5.80;99.90;;;;;;4196259;28;20040;-86
2021/01/13 09:55:50;;;;;;;;;;;5.80;99.90;;;;;;4202478;28;20508;-88
2021/01/13 09:57:52;;;;;;;0.85;0.45;;;5.80;99.90;;;;;;4198353;28;19927;-89
2021/01/13 09:59:59;;;;;;;1.30;1.02;;;5.90;99.90;;;;;;4192922;28;20524;-89
2021/01/13 10:02:02;;;;;;;0.70;0.60;;;5.90;99.90;;;;;;4192850;28;20131;-86
2021/01/13 10:04:09;;;;;;;1.55;0.98;;;5.90;99.90;;;;;;4195828;28;20131;-89
2021/01/13 10:06:40;;;;;;;0.88;0.82;;;5.90;99.90;;;;;;4195358;28;20548;-86
2021/01/13 10:08:59;;;;;;;0.95;0.82;;;5.90;99.90;;;;;;4214713;28;20050;-95
2021/01/13 10:11:03;;;;;;;1.23;1.02;;;6.00;99.90;;;;;;4218707;28;20579;-94
2021/01/13 10:13:04;;;;;;;0.77;0.73;;;5.90;99.90;;;;;;4168964;28;20506;-95
2021/01/13 10:15:10;;;;;;;4.00;3.08;;;5.90;99.90;;;;;;4198483;28;20058;-91
2021/01/13 10:17:11;;;;;;;2.75;1.77;;;6.00;99.90;;;;;;4184696;28;20336;-94
2021/01/13 10:19:13;;;;;;;2.22;1.67;;;6.00;99.90;;;;;;4208038;28;20328;-95
2021/01/13 10:21:15;;;;;;;1.63;1.52;;;6.00;99.90;;;;;;4222262;28;20064;-96
2021/01/13 10:23:17;;;;;;;1.25;1.15;;;6.00;99.90;;;;;;4211874;28;20056;-93
2021/01/13 10:25:29;;;;;;;0.52;0.47;;;6.00;99.90;;;;;;4182458;28;20045;-91
2021/01/13 10:27:31;;;;;;;1.30;0.93;;;6.00;99.90;;;;;;4218783;28;20083;-93
2021/01/13 10:29:32;;;;;;;0.65;0.52;;;6.10;99.90;;;;;;4188084;28;20045;-91
2021/01/13 10:31:34;;;;;;;0.63;0.35;;;6.00;99.90;;;;;;4220105;28;20134;-87
2021/01/13 10:33:47;;;;;;;2.83;1.75;;;6.00;99.90;;;;;;4221601;28;20044;-88
2021/01/13 10:35:48;;;;;;;1.70;1.55;;;6.10;99.90;;;;;;4224349;28;20043;-86
2021/01/13 10:37:53;;;;;;;2.28;0.95;;;6.10;99.90;;;;;;4203341;28;20052;-85
2021/01/13 10:40:06;;;;;;;;;;;6.20;99.90;;;;;;4234449;28;20484;-88
2021/01/13 10:42:08;;;;;;;0.47;0.47;;;6.20;99.90;;;;;;4224572;28;19920;-89
2021/01/13 10:44:13;;;;;;;1.17;1.08;;;6.20;99.90;;;;;;4223860;28;20500;-85
2021/01/13 10:46:15;;;;;;;1.75;0.85;;;6.20;99.90;;;;;;4217396;28;20048;-86
2021/01/13 10:48:18;;;;;;;1.80;1.00;;;6.30;99.90;;;;;;4214934;28;20480;-89
2021/01/13 10:50:22;;;;;;;1.55;1.23;;;6.30;99.90;;;;;;4232268;28;20054;-87
2021/01/13 10:52:23;;;;;;;3.42;1.50;;;6.40;99.90;;;;;;4232205;28;20134;-86
2021/01/13 10:54:29;;;;;;;5.00;1.88;;;6.30;99.90;;;;;;4215026;28;20048;-88
2021/01/13 10:56:32;;;;;;;1.95;1.10;;;6.40;99.90;;;;;;4196891;28;20126;-84
2021/01/13 10:58:36;;;;;;;2.00;1.70;;;6.50;99.90;;;;;;4197288;28;20066;-86
2021/01/13 11:00:37;;;;;;;2.05;1.30;;;6.50;99.90;;;;;;4210571;28;20512;-85
2021/01/13 11:02:39;;;;;;;1.38;0.93;;;6.50;99.90;;;;;;4228103;28;20051;-84
2021/01/13 11:04:41;;;;;;;1.95;1.15;;;6.60;99.90;;;;;;4185207;28;20045;-85
2021/01/13 11:06:42;;;;;;;1.27;0.75;;;6.60;99.90;;;;;;4194122;28;20051;-84
2021/01/13 11:08:44;;;;;;;1.27;0.82;;;6.70;99.90;;;;;;4191772;28;20048;-83
2021/01/13 11:10:45;;;;;;;1.20;1.10;;;6.70;99.90;;;;;;4201145;28;20040;-84
2021/01/13 11:12:48;;;;;;;1.58;1.33;;;6.70;99.90;;;;;;4229876;28;20090;-88